sensor_id;sensor_type;location;lat;lon;timestamp;temperature;humidity
3850;DHT22;1940;51.052;13.678;2022-09-16T00:00:15;14.20;83.80
3850;DHT22;1940;51.052;13.678;2022-09-16T00:02:41;14.20;83.70
3850;DHT22;1940;51.052;13.678;2022-09-16T00:05:07;14.20;83.80
3850;DHT22;1940;51.052;13.678;2022-09-16T00:07:32;14.20;83.90
3850;DHT22;1940;51.052;13.678;2022-09-16T00:09:58;14.20;84.00
3850;DHT22;1940;51.052;13.678;2022-09-16T00:12:25;14.30;84.10
3850;DHT22;1940;51.052;13.678;2022-09-16T00:14:53;14.30;84.00
3850;DHT22;1940;51.052;13.678;2022-09-16T00:17:19;14.20;84.30
3850;DHT22;1940;51.052;13.678;2022-09-16T00:19:45;14.20;84.60
3850;DHT22;1940;51.052;13.678;2022-09-16T00:22:10;14.20;84.40
3850;DHT22;1940;51.052;13.678;2022-09-16T00:24:36;14.20;84.30
3850;DHT22;1940;51.052;13.678;2022-09-16T00:27:02;14.20;84.20
3850;DHT22;1940;51.052;13.678;2022-09-16T00:29:28;14.20;84.00
3850;DHT22;1940;51.052;13.678;2022-09-16T00:31:53;14.10;84.00
3850;DHT22;1940;51.052;13.678;2022-09-16T00:34:19;14.10;83.80
3850;DHT22;1940;51.052;13.678;2022-09-16T00:36:45;14.00;83.90
3850;DHT22;1940;51.052;13.678;2022-09-16T00:39:10;14.00;83.90
3850;DHT22;1940;51.052;13.678;2022-09-16T00:41:35;14.00;83.90
3850;DHT22;1940;51.052;13.678;2022-09-16T00:46:53;14.00;84.40
3850;DHT22;1940;51.052;13.678;2022-09-16T00:49:24;14.00;84.30
3850;DHT22;1940;51.052;13.678;2022-09-16T00:52:02;14.00;84.40
3850;DHT22;1940;51.052;13.678;2022-09-16T00:54:30;14.00;84.30
3850;DHT22;1940;51.052;13.678;2022-09-16T00:56:58;14.00;84.20
3850;DHT22;1940;51.052;13.678;2022-09-16T00:59:31;14.00;84.40
3850;DHT22;1940;51.052;13.678;2022-09-16T01:02:03;14.00;84.40
3850;DHT22;1940;51.052;13.678;2022-09-16T01:07:17;13.90;84.30
3850;DHT22;1940;51.052;13.678;2022-09-16T01:09:45;13.90;84.30
3850;DHT22;1940;51.052;13.678;2022-09-16T01:12:11;13.80;84.70
3850;DHT22;1940;51.052;13.678;2022-09-16T01:14:36;13.70;85.00
3850;DHT22;1940;51.052;13.678;2022-09-16T01:17:39;13.60;85.30
3850;DHT22;1940;51.052;13.678;2022-09-16T01:20:48;13.50;85.30
3850;DHT22;1940;51.052;13.678;2022-09-16T01:26:25;13.30;85.90
3850;DHT22;1940;51.052;13.678;2022-09-16T01:35:02;13.20;86.10
3850;DHT22;1940;51.052;13.678;2022-09-16T01:43:19;13.20;86.20
3850;DHT22;1940;51.052;13.678;2022-09-16T01:45:57;13.20;86.30
3850;DHT22;1940;51.052;13.678;2022-09-16T01:48:35;13.20;86.30
3850;DHT22;1940;51.052;13.678;2022-09-16T01:51:04;13.20;86.20
3850;DHT22;1940;51.052;13.678;2022-09-16T01:53:35;13.20;86.10
3850;DHT22;1940;51.052;13.678;2022-09-16T01:56:19;13.20;86.20
3850;DHT22;1940;51.052;13.678;2022-09-16T02:01:32;13.20;86.40
3850;DHT22;1940;51.052;13.678;2022-09-16T02:04:06;13.30;85.80
3850;DHT22;1940;51.052;13.678;2022-09-16T02:06:35;13.40;85.80
3850;DHT22;1940;51.052;13.678;2022-09-16T02:09:09;13.40;85.40
3850;DHT22;1940;51.052;13.678;2022-09-16T02:11:38;13.40;85.00
3850;DHT22;1940;51.052;13.678;2022-09-16T02:14:24;13.50;85.20
3850;DHT22;1940;51.052;13.678;2022-09-16T02:16:56;13.50;85.60
3850;DHT22;1940;51.052;13.678;2022-09-16T02:23:01;13.50;85.50
3850;DHT22;1940;51.052;13.678;2022-09-16T02:25:30;13.60;85.20
3850;DHT22;1940;51.052;13.678;2022-09-16T02:27:59;13.50;85.20
3850;DHT22;1940;51.052;13.678;2022-09-16T02:30:25;13.50;85.40
3850;DHT22;1940;51.052;13.678;2022-09-16T02:32:57;13.50;85.40
3850;DHT22;1940;51.052;13.678;2022-09-16T02:35:25;13.50;85.70
3850;DHT22;1940;51.052;13.678;2022-09-16T02:37:58;13.60;85.60
3850;DHT22;1940;51.052;13.678;2022-09-16T02:40:32;13.70;85.60
3850;DHT22;1940;51.052;13.678;2022-09-16T02:42:59;13.70;85.80
3850;DHT22;1940;51.052;13.678;2022-09-16T02:48:20;13.60;86.00
3850;DHT22;1940;51.052;13.678;2022-09-16T02:53:44;13.50;86.40
3850;DHT22;1940;51.052;13.678;2022-09-16T02:56:23;13.40;86.50
3850;DHT22;1940;51.052;13.678;2022-09-16T02:58:51;13.40;86.50
3850;DHT22;1940;51.052;13.678;2022-09-16T03:01:18;13.40;86.60
3850;DHT22;1940;51.052;13.678;2022-09-16T03:03:44;13.40;86.70
3850;DHT22;1940;51.052;13.678;2022-09-16T03:06:12;13.40;86.80
3850;DHT22;1940;51.052;13.678;2022-09-16T03:08:39;13.40;86.60
3850;DHT22;1940;51.052;13.678;2022-09-16T03:19:25;13.50;86.50
3850;DHT22;1940;51.052;13.678;2022-09-16T03:22:01;13.40;86.30
3850;DHT22;1940;51.052;13.678;2022-09-16T03:27:33;13.40;86.40
3850;DHT22;1940;51.052;13.678;2022-09-16T03:30:06;13.40;86.40
3850;DHT22;1940;51.052;13.678;2022-09-16T03:32:52;13.40;86.40
3850;DHT22;1940;51.052;13.678;2022-09-16T03:35:26;13.50;86.60
3850;DHT22;1940;51.052;13.678;2022-09-16T03:37:54;13.50;86.70
3850;DHT22;1940;51.052;13.678;2022-09-16T03:40:22;13.40;86.80
3850;DHT22;1940;51.052;13.678;2022-09-16T03:42:48;13.40;86.90
3850;DHT22;1940;51.052;13.678;2022-09-16T03:45:16;13.50;86.80
3850;DHT22;1940;51.052;13.678;2022-09-16T03:47:43;13.50;86.50
3850;DHT22;1940;51.052;13.678;2022-09-16T03:50:10;13.40;86.70
3850;DHT22;1940;51.052;13.678;2022-09-16T03:52:35;13.40;87.00
3850;DHT22;1940;51.052;13.678;2022-09-16T03:55:01;13.40;87.00
3850;DHT22;1940;51.052;13.678;2022-09-16T03:57:26;13.30;86.30
3850;DHT22;1940;51.052;13.678;2022-09-16T03:59:52;13.30;86.20
3850;DHT22;1940;51.052;13.678;2022-09-16T04:02:18;13.30;86.30
3850;DHT22;1940;51.052;13.678;2022-09-16T04:04:43;13.20;86.30
3850;DHT22;1940;51.052;13.678;2022-09-16T04:07:09;13.20;85.90
3850;DHT22;1940;51.052;13.678;2022-09-16T04:09:35;13.20;85.80
3850;DHT22;1940;51.052;13.678;2022-09-16T04:12:02;13.20;85.90
3850;DHT22;1940;51.052;13.678;2022-09-16T04:14:28;13.20;86.00
3850;DHT22;1940;51.052;13.678;2022-09-16T04:16:53;13.20;86.20
3850;DHT22;1940;51.052;13.678;2022-09-16T04:19:19;13.10;86.40
3850;DHT22;1940;51.052;13.678;2022-09-16T04:21:45;13.10;86.40
3850;DHT22;1940;51.052;13.678;2022-09-16T04:24:10;13.20;86.60
3850;DHT22;1940;51.052;13.678;2022-09-16T04:26:36;13.20;86.50
3850;DHT22;1940;51.052;13.678;2022-09-16T04:29:01;13.20;86.60
3850;DHT22;1940;51.052;13.678;2022-09-16T04:31:27;13.20;86.50
3850;DHT22;1940;51.052;13.678;2022-09-16T04:33:53;13.20;86.60
3850;DHT22;1940;51.052;13.678;2022-09-16T04:36:19;13.20;86.50
3850;DHT22;1940;51.052;13.678;2022-09-16T04:38:46;13.20;86.50
3850;DHT22;1940;51.052;13.678;2022-09-16T04:41:21;13.30;86.60
3850;DHT22;1940;51.052;13.678;2022-09-16T04:43:53;13.30;86.20
3850;DHT22;1940;51.052;13.678;2022-09-16T04:46:21;13.30;86.00
3850;DHT22;1940;51.052;13.678;2022-09-16T04:48:48;13.40;85.90
3850;DHT22;1940;51.052;13.678;2022-09-16T04:51:14;13.40;85.60
3850;DHT22;1940;51.052;13.678;2022-09-16T04:53:40;13.40;85.50
3850;DHT22;1940;51.052;13.678;2022-09-16T04:56:13;13.50;85.60
3850;DHT22;1940;51.052;13.678;2022-09-16T04:58:41;13.40;85.40
3850;DHT22;1940;51.052;13.678;2022-09-16T05:01:09;13.40;85.20
3850;DHT22;1940;51.052;13.678;2022-09-16T05:03:44;13.40;85.30
3850;DHT22;1940;51.052;13.678;2022-09-16T05:06:15;13.40;85.60
3850;DHT22;1940;51.052;13.678;2022-09-16T05:08:41;13.40;85.80
3850;DHT22;1940;51.052;13.678;2022-09-16T05:11:13;13.40;85.70
3850;DHT22;1940;51.052;13.678;2022-09-16T05:13:39;13.40;85.40
3850;DHT22;1940;51.052;13.678;2022-09-16T05:16:07;13.40;85.20
3850;DHT22;1940;51.052;13.678;2022-09-16T05:18:34;13.50;85.00
3850;DHT22;1940;51.052;13.678;2022-09-16T05:21:00;13.40;85.20
3850;DHT22;1940;51.052;13.678;2022-09-16T05:23:26;13.50;85.00
3850;DHT22;1940;51.052;13.678;2022-09-16T05:25:52;13.50;84.90
3850;DHT22;1940;51.052;13.678;2022-09-16T05:28:18;13.50;84.40
3850;DHT22;1940;51.052;13.678;2022-09-16T05:30:44;13.40;84.50
3850;DHT22;1940;51.052;13.678;2022-09-16T05:33:09;13.40;84.40
3850;DHT22;1940;51.052;13.678;2022-09-16T05:35:35;13.50;84.20
3850;DHT22;1940;51.052;13.678;2022-09-16T05:38:00;13.60;84.00
3850;DHT22;1940;51.052;13.678;2022-09-16T05:40:26;13.60;83.70
3850;DHT22;1940;51.052;13.678;2022-09-16T05:42:52;13.70;83.70
3850;DHT22;1940;51.052;13.678;2022-09-16T05:45:17;13.70;83.50
3850;DHT22;1940;51.052;13.678;2022-09-16T05:47:47;13.80;83.30
3850;DHT22;1940;51.052;13.678;2022-09-16T05:50:13;13.80;83.10
3850;DHT22;1940;51.052;13.678;2022-09-16T05:52:39;13.90;82.90
3850;DHT22;1940;51.052;13.678;2022-09-16T05:55:04;14.00;82.90
3850;DHT22;1940;51.052;13.678;2022-09-16T05:57:30;14.00;83.10
3850;DHT22;1940;51.052;13.678;2022-09-16T05:59:55;14.10;83.50
3850;DHT22;1940;51.052;13.678;2022-09-16T06:02:21;14.20;83.20
3850;DHT22;1940;51.052;13.678;2022-09-16T06:04:46;14.30;82.30
3850;DHT22;1940;51.052;13.678;2022-09-16T06:07:12;14.50;82.30
3850;DHT22;1940;51.052;13.678;2022-09-16T06:09:38;14.70;82.20
3850;DHT22;1940;51.052;13.678;2022-09-16T06:12:03;14.90;81.80
3850;DHT22;1940;51.052;13.678;2022-09-16T06:14:29;15.00;80.90
3850;DHT22;1940;51.052;13.678;2022-09-16T06:16:55;15.00;80.80
3850;DHT22;1940;51.052;13.678;2022-09-16T06:19:21;15.00;80.60
3850;DHT22;1940;51.052;13.678;2022-09-16T06:21:47;14.90;80.70
3850;DHT22;1940;51.052;13.678;2022-09-16T06:24:14;14.90;81.00
3850;DHT22;1940;51.052;13.678;2022-09-16T06:26:42;14.90;80.90
3850;DHT22;1940;51.052;13.678;2022-09-16T06:29:08;15.10;80.60
3850;DHT22;1940;51.052;13.678;2022-09-16T06:31:35;15.30;80.10
3850;DHT22;1940;51.052;13.678;2022-09-16T06:34:00;15.30;80.00
3850;DHT22;1940;51.052;13.678;2022-09-16T06:36:30;15.50;80.00
3850;DHT22;1940;51.052;13.678;2022-09-16T06:38:56;15.70;79.60
3850;DHT22;1940;51.052;13.678;2022-09-16T06:41:23;15.80;79.00
3850;DHT22;1940;51.052;13.678;2022-09-16T06:43:50;15.60;79.20
3850;DHT22;1940;51.052;13.678;2022-09-16T06:46:24;15.40;79.40
3850;DHT22;1940;51.052;13.678;2022-09-16T06:48:52;15.30;79.70
3850;DHT22;1940;51.052;13.678;2022-09-16T06:51:21;15.30;80.00
3850;DHT22;1940;51.052;13.678;2022-09-16T06:53:48;15.30;79.90
3850;DHT22;1940;51.052;13.678;2022-09-16T06:56:16;15.30;79.70
3850;DHT22;1940;51.052;13.678;2022-09-16T06:58:43;15.30;80.20
3850;DHT22;1940;51.052;13.678;2022-09-16T07:01:14;15.20;80.00
3850;DHT22;1940;51.052;13.678;2022-09-16T07:03:42;15.40;79.40
3850;DHT22;1940;51.052;13.678;2022-09-16T07:06:09;15.60;79.60
3850;DHT22;1940;51.052;13.678;2022-09-16T07:08:36;15.80;78.60
3850;DHT22;1940;51.052;13.678;2022-09-16T07:13:29;15.80;77.50
3850;DHT22;1940;51.052;13.678;2022-09-16T07:16:03;15.80;77.40
3850;DHT22;1940;51.052;13.678;2022-09-16T07:18:30;15.80;77.30
3850;DHT22;1940;51.052;13.678;2022-09-16T07:21:06;15.90;77.20
3850;DHT22;1940;51.052;13.678;2022-09-16T07:23:34;16.00;76.50
3850;DHT22;1940;51.052;13.678;2022-09-16T07:26:15;16.30;75.60
3850;DHT22;1940;51.052;13.678;2022-09-16T07:28:42;16.60;74.70
3850;DHT22;1940;51.052;13.678;2022-09-16T07:31:13;16.80;74.30
3850;DHT22;1940;51.052;13.678;2022-09-16T07:33:41;16.90;73.50
3850;DHT22;1940;51.052;13.678;2022-09-16T07:36:09;16.90;73.40
3850;DHT22;1940;51.052;13.678;2022-09-16T07:38:35;16.90;73.10
3850;DHT22;1940;51.052;13.678;2022-09-16T07:41:09;16.60;74.40
3850;DHT22;1940;51.052;13.678;2022-09-16T07:43:36;16.40;74.40
3850;DHT22;1940;51.052;13.678;2022-09-16T07:46:02;16.20;75.40
3850;DHT22;1940;51.052;13.678;2022-09-16T07:48:29;16.10;75.40
3850;DHT22;1940;51.052;13.678;2022-09-16T07:51:17;16.20;75.20
3850;DHT22;1940;51.052;13.678;2022-09-16T07:53:43;16.10;75.40
3850;DHT22;1940;51.052;13.678;2022-09-16T07:56:15;16.10;75.30
3850;DHT22;1940;51.052;13.678;2022-09-16T07:58:42;16.30;75.40
3850;DHT22;1940;51.052;13.678;2022-09-16T08:01:08;16.30;74.90
3850;DHT22;1940;51.052;13.678;2022-09-16T08:03:35;16.20;75.10
3850;DHT22;1940;51.052;13.678;2022-09-16T08:06:08;16.20;75.50
3850;DHT22;1940;51.052;13.678;2022-09-16T08:08:35;16.10;75.50
3850;DHT22;1940;51.052;13.678;2022-09-16T08:11:01;15.80;75.90
3850;DHT22;1940;51.052;13.678;2022-09-16T08:13:28;15.80;76.00
3850;DHT22;1940;51.052;13.678;2022-09-16T08:15:59;15.80;76.00
3850;DHT22;1940;51.052;13.678;2022-09-16T08:18:25;15.90;75.10
3850;DHT22;1940;51.052;13.678;2022-09-16T08:20:50;16.20;74.50
3850;DHT22;1940;51.052;13.678;2022-09-16T08:23:16;16.40;74.30
3850;DHT22;1940;51.052;13.678;2022-09-16T08:25:41;16.60;73.30
3850;DHT22;1940;51.052;13.678;2022-09-16T08:28:14;16.80;72.50
3850;DHT22;1940;51.052;13.678;2022-09-16T08:30:42;17.60;71.20
3850;DHT22;1940;51.052;13.678;2022-09-16T08:33:08;19.20;68.70
3850;DHT22;1940;51.052;13.678;2022-09-16T08:35:34;21.20;64.00
3850;DHT22;1940;51.052;13.678;2022-09-16T08:38:00;22.20;61.80
3850;DHT22;1940;51.052;13.678;2022-09-16T08:40:26;23.30;58.90
3850;DHT22;1940;51.052;13.678;2022-09-16T08:43:02;23.70;57.60
3850;DHT22;1940;51.052;13.678;2022-09-16T08:45:48;24.70;56.00
3850;DHT22;1940;51.052;13.678;2022-09-16T08:50:56;25.40;54.40
3850;DHT22;1940;51.052;13.678;2022-09-16T08:53:41;25.10;55.10
3850;DHT22;1940;51.052;13.678;2022-09-16T08:56:15;23.80;56.10
3850;DHT22;1940;51.052;13.678;2022-09-16T08:58:43;22.80;58.00
3850;DHT22;1940;51.052;13.678;2022-09-16T09:01:25;21.80;60.30
3850;DHT22;1940;51.052;13.678;2022-09-16T09:03:53;20.80;62.50
3850;DHT22;1940;51.052;13.678;2022-09-16T09:12:02;18.40;68.40
3850;DHT22;1940;51.052;13.678;2022-09-16T09:17:45;17.30;69.50
3850;DHT22;1940;51.052;13.678;2022-09-16T09:23:26;16.70;72.60
3850;DHT22;1940;51.052;13.678;2022-09-16T09:26:12;16.60;72.30
3850;DHT22;1940;51.052;13.678;2022-09-16T09:28:58;16.30;72.50
3850;DHT22;1940;51.052;13.678;2022-09-16T09:37:08;16.90;71.90
3850;DHT22;1940;51.052;13.678;2022-09-16T09:39:52;17.00;71.60
3850;DHT22;1940;51.052;13.678;2022-09-16T09:42:30;17.30;71.40
3850;DHT22;1940;51.052;13.678;2022-09-16T09:45:17;17.40;70.90
3850;DHT22;1940;51.052;13.678;2022-09-16T09:47:53;17.40;71.30
3850;DHT22;1940;51.052;13.678;2022-09-16T09:50:42;17.60;70.40
3850;DHT22;1940;51.052;13.678;2022-09-16T09:53:12;17.90;69.90
3850;DHT22;1940;51.052;13.678;2022-09-16T09:55:40;17.90;69.60
3850;DHT22;1940;51.052;13.678;2022-09-16T09:58:23;18.10;69.80
3850;DHT22;1940;51.052;13.678;2022-09-16T10:00:51;18.00;68.50
3850;DHT22;1940;51.052;13.678;2022-09-16T10:03:23;18.10;68.80
3850;DHT22;1940;51.052;13.678;2022-09-16T10:05:49;18.00;69.20
3850;DHT22;1940;51.052;13.678;2022-09-16T10:11:16;18.30;69.60
3850;DHT22;1940;51.052;13.678;2022-09-16T10:13:57;18.70;68.40
3850;DHT22;1940;51.052;13.678;2022-09-16T10:16:36;18.50;67.30
3850;DHT22;1940;51.052;13.678;2022-09-16T10:21:48;19.70;66.00
3850;DHT22;1940;51.052;13.678;2022-09-16T10:24:28;20.50;63.30
3850;DHT22;1940;51.052;13.678;2022-09-16T10:26:55;20.60;62.30
3850;DHT22;1940;51.052;13.678;2022-09-16T10:29:20;19.80;65.30
3850;DHT22;1940;51.052;13.678;2022-09-16T10:31:46;18.80;69.20
3850;DHT22;1940;51.052;13.678;2022-09-16T10:34:28;18.10;71.80
3850;DHT22;1940;51.052;13.678;2022-09-16T10:37:01;17.40;74.70
3850;DHT22;1940;51.052;13.678;2022-09-16T10:39:28;16.50;78.60
3850;DHT22;1940;51.052;13.678;2022-09-16T10:41:54;15.90;80.80
3850;DHT22;1940;51.052;13.678;2022-09-16T10:44:28;15.60;82.90
3850;DHT22;1940;51.052;13.678;2022-09-16T10:47:00;15.30;82.30
3850;DHT22;1940;51.052;13.678;2022-09-16T10:52:26;15.60;83.90
3850;DHT22;1940;51.052;13.678;2022-09-16T10:54:53;15.90;80.40
3850;DHT22;1940;51.052;13.678;2022-09-16T10:57:30;16.20;81.00
3850;DHT22;1940;51.052;13.678;2022-09-16T10:59:57;16.40;79.30
3850;DHT22;1940;51.052;13.678;2022-09-16T11:11:38;18.50;72.00
3850;DHT22;1940;51.052;13.678;2022-09-16T11:17:14;17.50;74.30
3850;DHT22;1940;51.052;13.678;2022-09-16T11:22:41;16.40;76.70
3850;DHT22;1940;51.052;13.678;2022-09-16T11:31:06;16.30;79.10
3850;DHT22;1940;51.052;13.678;2022-09-16T11:36:35;16.10;81.70
3850;DHT22;1940;51.052;13.678;2022-09-16T11:42:04;16.10;80.40
3850;DHT22;1940;51.052;13.678;2022-09-16T11:47:39;15.80;79.10
3850;DHT22;1940;51.052;13.678;2022-09-16T11:50:33;15.80;80.10
3850;DHT22;1940;51.052;13.678;2022-09-16T11:53:23;16.10;79.30
3850;DHT22;1940;51.052;13.678;2022-09-16T11:56:00;16.30;80.50
3850;DHT22;1940;51.052;13.678;2022-09-16T11:58:50;16.20;80.90
3850;DHT22;1940;51.052;13.678;2022-09-16T12:01:36;16.30;80.00
3850;DHT22;1940;51.052;13.678;2022-09-16T12:04:11;16.40;78.70
3850;DHT22;1940;51.052;13.678;2022-09-16T12:09:52;16.80;79.40
3850;DHT22;1940;51.052;13.678;2022-09-16T12:12:30;16.90;77.20
3850;DHT22;1940;51.052;13.678;2022-09-16T12:15:01;16.70;77.50
3850;DHT22;1940;51.052;13.678;2022-09-16T12:17:31;16.90;76.10
3850;DHT22;1940;51.052;13.678;2022-09-16T12:19:59;17.00;75.60
3850;DHT22;1940;51.052;13.678;2022-09-16T12:30:22;17.10;73.80
3850;DHT22;1940;51.052;13.678;2022-09-16T12:33:13;17.30;73.60
3850;DHT22;1940;51.052;13.678;2022-09-16T12:36:09;17.40;72.60
3850;DHT22;1940;51.052;13.678;2022-09-16T12:38:35;17.50;72.00
3850;DHT22;1940;51.052;13.678;2022-09-16T12:41:22;17.40;71.90
3850;DHT22;1940;51.052;13.678;2022-09-16T12:44:15;17.60;71.30
3850;DHT22;1940;51.052;13.678;2022-09-16T12:50:16;17.70;71.40
3850;DHT22;1940;51.052;13.678;2022-09-16T12:53:02;17.70;71.80
3850;DHT22;1940;51.052;13.678;2022-09-16T13:01:11;17.80;68.90
3850;DHT22;1940;51.052;13.678;2022-09-16T13:03:44;17.70;69.40
3850;DHT22;1940;51.052;13.678;2022-09-16T13:06:26;17.50;69.40
3850;DHT22;1940;51.052;13.678;2022-09-16T13:08:53;17.40;70.80
3850;DHT22;1940;51.052;13.678;2022-09-16T13:11:28;17.60;71.80
3850;DHT22;1940;51.052;13.678;2022-09-16T13:13:57;17.70;71.70
3850;DHT22;1940;51.052;13.678;2022-09-16T13:16:32;17.80;71.20
3850;DHT22;1940;51.052;13.678;2022-09-16T13:21:43;17.70;69.10
3850;DHT22;1940;51.052;13.678;2022-09-16T13:24:29;17.80;70.10
3850;DHT22;1940;51.052;13.678;2022-09-16T13:26:55;17.90;70.00
3850;DHT22;1940;51.052;13.678;2022-09-16T13:32:02;17.90;69.30
3850;DHT22;1940;51.052;13.678;2022-09-16T13:34:27;17.70;70.50
3850;DHT22;1940;51.052;13.678;2022-09-16T13:36:53;17.70;70.60
3850;DHT22;1940;51.052;13.678;2022-09-16T13:39:31;17.70;70.20
3850;DHT22;1940;51.052;13.678;2022-09-16T13:42:07;17.50;70.50
3850;DHT22;1940;51.052;13.678;2022-09-16T13:49:38;17.60;66.80
3850;DHT22;1940;51.052;13.678;2022-09-16T13:52:10;17.60;67.70
3850;DHT22;1940;51.052;13.678;2022-09-16T13:54:41;17.50;66.80
3850;DHT22;1940;51.052;13.678;2022-09-16T14:00:24;17.40;67.30
3850;DHT22;1940;51.052;13.678;2022-09-16T14:06:05;16.70;69.70
3850;DHT22;1940;51.052;13.678;2022-09-16T14:08:47;16.50;71.60
3850;DHT22;1940;51.052;13.678;2022-09-16T14:14:09;16.30;69.40
3850;DHT22;1940;51.052;13.678;2022-09-16T14:16:40;16.60;69.60
3850;DHT22;1940;51.052;13.678;2022-09-16T14:19:27;16.70;68.20
3850;DHT22;1940;51.052;13.678;2022-09-16T14:22:15;16.60;68.70
3850;DHT22;1940;51.052;13.678;2022-09-16T14:24:42;16.60;69.50
3850;DHT22;1940;51.052;13.678;2022-09-16T14:29:58;16.60;67.90
3850;DHT22;1940;51.052;13.678;2022-09-16T14:32:27;16.60;68.40
3850;DHT22;1940;51.052;13.678;2022-09-16T14:34:55;16.60;66.10
3850;DHT22;1940;51.052;13.678;2022-09-16T14:37:23;16.60;66.90
3850;DHT22;1940;51.052;13.678;2022-09-16T14:39:50;16.60;66.20
3850;DHT22;1940;51.052;13.678;2022-09-16T14:42:19;16.70;65.10
3850;DHT22;1940;51.052;13.678;2022-09-16T14:44:49;16.70;65.30
3850;DHT22;1940;51.052;13.678;2022-09-16T14:47:44;16.70;65.80
3850;DHT22;1940;51.052;13.678;2022-09-16T14:50:12;16.70;65.80
3850;DHT22;1940;51.052;13.678;2022-09-16T14:52:39;16.70;67.00
3850;DHT22;1940;51.052;13.678;2022-09-16T14:55:22;16.80;66.60
3850;DHT22;1940;51.052;13.678;2022-09-16T14:57:47;16.70;66.00
3850;DHT22;1940;51.052;13.678;2022-09-16T15:00:15;16.80;66.90
3850;DHT22;1940;51.052;13.678;2022-09-16T15:03:04;16.80;66.20
3850;DHT22;1940;51.052;13.678;2022-09-16T15:05:34;16.90;65.30
3850;DHT22;1940;51.052;13.678;2022-09-16T15:10:49;16.80;65.30
3850;DHT22;1940;51.052;13.678;2022-09-16T15:13:16;16.70;65.30
3850;DHT22;1940;51.052;13.678;2022-09-16T15:15:52;16.70;65.80
3850;DHT22;1940;51.052;13.678;2022-09-16T15:18:26;16.70;65.60
3850;DHT22;1940;51.052;13.678;2022-09-16T15:21:15;16.70;66.90
3850;DHT22;1940;51.052;13.678;2022-09-16T15:23:45;16.80;67.30
3850;DHT22;1940;51.052;13.678;2022-09-16T15:26:30;16.80;67.70
3850;DHT22;1940;51.052;13.678;2022-09-16T15:29:24;16.80;67.80
3850;DHT22;1940;51.052;13.678;2022-09-16T15:31:51;16.70;68.10
3850;DHT22;1940;51.052;13.678;2022-09-16T15:36:56;16.80;68.80
3850;DHT22;1940;51.052;13.678;2022-09-16T15:42:22;16.70;68.60
3850;DHT22;1940;51.052;13.678;2022-09-16T15:44:56;16.70;68.20
3850;DHT22;1940;51.052;13.678;2022-09-16T15:47:26;16.60;68.30
3850;DHT22;1940;51.052;13.678;2022-09-16T15:50:03;16.50;67.60
3850;DHT22;1940;51.052;13.678;2022-09-16T15:58:20;16.40;68.80
3850;DHT22;1940;51.052;13.678;2022-09-16T16:03:51;16.30;68.90
3850;DHT22;1940;51.052;13.678;2022-09-16T16:06:19;16.20;69.30
3850;DHT22;1940;51.052;13.678;2022-09-16T16:08:51;16.00;69.10
3850;DHT22;1940;51.052;13.678;2022-09-16T16:11:19;16.00;69.10
3850;DHT22;1940;51.052;13.678;2022-09-16T16:13:45;16.00;69.60
3850;DHT22;1940;51.052;13.678;2022-09-16T16:16:13;15.90;69.70
3850;DHT22;1940;51.052;13.678;2022-09-16T16:18:40;15.80;69.70
3850;DHT22;1940;51.052;13.678;2022-09-16T16:21:13;15.70;69.60
3850;DHT22;1940;51.052;13.678;2022-09-16T16:23:40;15.60;70.30
3850;DHT22;1940;51.052;13.678;2022-09-16T16:26:07;15.50;70.70
3850;DHT22;1940;51.052;13.678;2022-09-16T16:28:33;15.40;70.90
3850;DHT22;1940;51.052;13.678;2022-09-16T16:31:11;15.30;71.60
3850;DHT22;1940;51.052;13.678;2022-09-16T16:33:39;15.20;71.60
3850;DHT22;1940;51.052;13.678;2022-09-16T16:36:05;15.20;72.40
3850;DHT22;1940;51.052;13.678;2022-09-16T16:38:31;15.20;72.50
3850;DHT22;1940;51.052;13.678;2022-09-16T16:40:56;15.10;72.80
3850;DHT22;1940;51.052;13.678;2022-09-16T16:43:22;15.10;72.80
3850;DHT22;1940;51.052;13.678;2022-09-16T16:45:54;15.10;73.50
3850;DHT22;1940;51.052;13.678;2022-09-16T16:48:21;15.10;73.50
3850;DHT22;1940;51.052;13.678;2022-09-16T16:51:03;15.10;74.10
3850;DHT22;1940;51.052;13.678;2022-09-16T16:53:29;15.10;73.90
3850;DHT22;1940;51.052;13.678;2022-09-16T16:56:10;15.10;74.20
3850;DHT22;1940;51.052;13.678;2022-09-16T16:58:36;15.20;74.20
3850;DHT22;1940;51.052;13.678;2022-09-16T17:01:15;15.10;74.50
3850;DHT22;1940;51.052;13.678;2022-09-16T17:03:42;15.00;74.10
3850;DHT22;1940;51.052;13.678;2022-09-16T17:06:09;15.00;74.70
3850;DHT22;1940;51.052;13.678;2022-09-16T17:08:35;14.90;75.00
3850;DHT22;1940;51.052;13.678;2022-09-16T17:13:37;14.70;75.20
3850;DHT22;1940;51.052;13.678;2022-09-16T17:16:04;14.60;75.30
3850;DHT22;1940;51.052;13.678;2022-09-16T17:18:31;14.60;75.60
3850;DHT22;1940;51.052;13.678;2022-09-16T17:21:08;14.60;75.10
3850;DHT22;1940;51.052;13.678;2022-09-16T17:23:35;14.50;75.60
3850;DHT22;1940;51.052;13.678;2022-09-16T17:26:01;14.50;75.60
3850;DHT22;1940;51.052;13.678;2022-09-16T17:28:27;14.40;75.50
3850;DHT22;1940;51.052;13.678;2022-09-16T17:30:53;14.30;76.00
3850;DHT22;1940;51.052;13.678;2022-09-16T17:33:19;14.30;75.90
3850;DHT22;1940;51.052;13.678;2022-09-16T17:35:44;14.30;76.00
3850;DHT22;1940;51.052;13.678;2022-09-16T17:38:10;14.20;76.80
3850;DHT22;1940;51.052;13.678;2022-09-16T17:40:36;14.20;76.90
3850;DHT22;1940;51.052;13.678;2022-09-16T17:43:02;14.10;77.50
3850;DHT22;1940;51.052;13.678;2022-09-16T17:45:27;14.10;77.90
3850;DHT22;1940;51.052;13.678;2022-09-16T17:47:54;14.10;78.20
3850;DHT22;1940;51.052;13.678;2022-09-16T17:50:19;14.00;78.50
3850;DHT22;1940;51.052;13.678;2022-09-16T17:52:45;13.90;78.80
3850;DHT22;1940;51.052;13.678;2022-09-16T17:55:12;13.90;79.10
3850;DHT22;1940;51.052;13.678;2022-09-16T17:57:37;13.90;79.30
3850;DHT22;1940;51.052;13.678;2022-09-16T18:00:04;13.80;79.30
3850;DHT22;1940;51.052;13.678;2022-09-16T18:02:30;13.80;79.50
3850;DHT22;1940;51.052;13.678;2022-09-16T18:04:55;13.80;79.60
3850;DHT22;1940;51.052;13.678;2022-09-16T18:07:21;13.80;79.50
3850;DHT22;1940;51.052;13.678;2022-09-16T18:09:46;13.80;79.50
3850;DHT22;1940;51.052;13.678;2022-09-16T18:12:11;13.70;79.50
3850;DHT22;1940;51.052;13.678;2022-09-16T18:14:37;13.70;79.70
3850;DHT22;1940;51.052;13.678;2022-09-16T18:17:02;13.70;79.80
3850;DHT22;1940;51.052;13.678;2022-09-16T18:19:28;13.60;79.90
3850;DHT22;1940;51.052;13.678;2022-09-16T18:21:53;13.60;79.90
3850;DHT22;1940;51.052;13.678;2022-09-16T18:24:19;13.60;79.90
3850;DHT22;1940;51.052;13.678;2022-09-16T18:26:45;13.50;80.00
3850;DHT22;1940;51.052;13.678;2022-09-16T18:29:12;13.50;79.80
3850;DHT22;1940;51.052;13.678;2022-09-16T18:31:43;13.50;79.70
3850;DHT22;1940;51.052;13.678;2022-09-16T18:34:09;13.40;79.80
3850;DHT22;1940;51.052;13.678;2022-09-16T18:36:35;13.30;79.80
3850;DHT22;1940;51.052;13.678;2022-09-16T18:39:02;13.30;79.70
3850;DHT22;1940;51.052;13.678;2022-09-16T18:41:30;13.30;79.50
3850;DHT22;1940;51.052;13.678;2022-09-16T18:43:58;13.30;79.30
3850;DHT22;1940;51.052;13.678;2022-09-16T18:46:27;13.30;79.40
3850;DHT22;1940;51.052;13.678;2022-09-16T18:48:53;13.30;79.10
3850;DHT22;1940;51.052;13.678;2022-09-16T18:51:21;13.30;78.80